sensor_id;sensor_type;location;lat;lon;timestamp;P1;durP1;ratioP1;P2;durP2;ratioP2
51451;SDS011;37521;52.020;-1.740;2023-02-28T00:01:30;1.63;;;1.45;;
51451;SDS011;37521;52.020;-1.740;2023-02-28T00:04:00;1.73;;;1.42;;
51451;SDS011;37521;52.020;-1.740;2023-02-28T00:06:28;1.77;;;1.40;;
51451;SDS011;37521;52.020;-1.740;2023-02-28T00:08:56;2.22;;;1.73;;
51451;SDS011;37521;52.020;-1.740;2023-02-28T00:11:25;1.30;;;1.05;;
51451;SDS011;37521;52.020;-1.740;2023-02-28T00:13:53;1.83;;;1.27;;
51451;SDS011;37521;52.020;-1.740;2023-02-28T00:16:22;0.93;;;0.70;;
51451;SDS011;37521;52.020;-1.740;2023-02-28T00:18:50;0.57;;;0.57;;
51451;SDS011;37521;52.020;-1.740;2023-02-28T00:21:23;1.88;;;0.90;;
51451;SDS011;37521;52.020;-1.740;2023-02-28T00:23:51;1.98;;;0.93;;
51451;SDS011;37521;52.020;-1.740;2023-02-28T00:26:19;2.15;;;0.88;;
51451;SDS011;37521;52.020;-1.740;2023-02-28T00:28:48;1.30;;;0.90;;
51451;SDS011;37521;52.020;-1.740;2023-02-28T00:31:16;1.35;;;0.95;;
51451;SDS011;37521;52.020;-1.740;2023-02-28T00:33:47;1.10;;;0.98;;
51451;SDS011;37521;52.020;-1.740;2023-02-28T00:36:15;2.65;;;1.13;;
51451;SDS011;37521;52.020;-1.740;2023-02-28T00:38:44;0.75;;;0.60;;
51451;SDS011;37521;52.020;-1.740;2023-02-28T00:41:13;1.05;;;0.57;;
51451;SDS011;37521;52.020;-1.740;2023-02-28T00:43:41;1.50;;;0.38;;
51451;SDS011;37521;52.020;-1.740;2023-02-28T00:46:10;0.63;;;0.63;;
51451;SDS011;37521;52.020;-1.740;2023-02-28T00:48:38;0.70;;;0.70;;
51451;SDS011;37521;52.020;-1.740;2023-02-28T00:51:07;1.60;;;0.90;;
51451;SDS011;37521;52.020;-1.740;2023-02-28T00:53:35;0.60;;;0.60;;
51451;SDS011;37521;52.020;-1.740;2023-02-28T00:56:05;2.85;;;0.95;;
51451;SDS011;37521;52.020;-1.740;2023-02-28T00:58:34;2.78;;;0.57;;
51451;SDS011;37521;52.020;-1.740;2023-02-28T01:01:02;3.72;;;0.77;;
51451;SDS011;37521;52.020;-1.740;2023-02-28T01:03:30;0.80;;;0.60;;
51451;SDS011;37521;52.020;-1.740;2023-02-28T01:05:58;1.02;;;1.00;;
51451;SDS011;37521;52.020;-1.740;2023-02-28T01:08:26;0.60;;;0.60;;
51451;SDS011;37521;52.020;-1.740;2023-02-28T01:10:55;1.58;;;0.88;;
51451;SDS011;37521;52.020;-1.740;2023-02-28T01:13:24;1.10;;;1.10;;
51451;SDS011;37521;52.020;-1.740;2023-02-28T01:15:54;1.75;;;0.60;;
51451;SDS011;37521;52.020;-1.740;2023-02-28T01:18:23;1.77;;;0.73;;
51451;SDS011;37521;52.020;-1.740;2023-02-28T01:20:52;0.95;;;0.82;;
51451;SDS011;37521;52.020;-1.740;2023-02-28T01:23:21;1.33;;;0.80;;
51451;SDS011;37521;52.020;-1.740;2023-02-28T01:25:50;4.25;;;0.80;;
51451;SDS011;37521;52.020;-1.740;2023-02-28T01:28:19;1.95;;;1.13;;
51451;SDS011;37521;52.020;-1.740;2023-02-28T01:30:50;2.50;;;0.75;;
51451;SDS011;37521;52.020;-1.740;2023-02-28T01:33:19;0.70;;;0.60;;
51451;SDS011;37521;52.020;-1.740;2023-02-28T01:35:47;0.50;;;0.50;;
51451;SDS011;37521;52.020;-1.740;2023-02-28T01:38:15;1.73;;;1.15;;
51451;SDS011;37521;52.020;-1.740;2023-02-28T01:40:49;0.80;;;0.75;;
51451;SDS011;37521;52.020;-1.740;2023-02-28T01:43:20;1.77;;;1.30;;
51451;SDS011;37521;52.020;-1.740;2023-02-28T01:45:52;1.60;;;1.08;;
51451;SDS011;37521;52.020;-1.740;2023-02-28T01:48:22;1.98;;;1.52;;
51451;SDS011;37521;52.020;-1.740;2023-02-28T01:50:54;2.53;;;1.20;;
51451;SDS011;37521;52.020;-1.740;2023-02-28T01:53:26;6.50;;;2.00;;
51451;SDS011;37521;52.020;-1.740;2023-02-28T01:55:59;1.40;;;1.25;;
51451;SDS011;37521;52.020;-1.740;2023-02-28T01:58:31;1.23;;;1.17;;
51451;SDS011;37521;52.020;-1.740;2023-02-28T02:01:01;2.40;;;1.70;;
51451;SDS011;37521;52.020;-1.740;2023-02-28T02:03:30;1.88;;;1.33;;
51451;SDS011;37521;52.020;-1.740;2023-02-28T02:05:58;1.88;;;1.48;;
51451;SDS011;37521;52.020;-1.740;2023-02-28T02:08:28;3.33;;;1.55;;
51451;SDS011;37521;52.020;-1.740;2023-02-28T02:10:57;3.00;;;1.75;;
51451;SDS011;37521;52.020;-1.740;2023-02-28T02:13:36;2.17;;;1.98;;
51451;SDS011;37521;52.020;-1.740;2023-02-28T02:16:22;4.80;;;2.38;;
51451;SDS011;37521;52.020;-1.740;2023-02-28T02:18:59;2.38;;;2.17;;
51451;SDS011;37521;52.020;-1.740;2023-02-28T02:21:48;1.90;;;1.73;;
51451;SDS011;37521;52.020;-1.740;2023-02-28T02:24:48;2.50;;;1.35;;
51451;SDS011;37521;52.020;-1.740;2023-02-28T02:27:39;2.20;;;1.77;;
51451;SDS011;37521;52.020;-1.740;2023-02-28T02:33:41;1.02;;;1.00;;
51451;SDS011;37521;52.020;-1.740;2023-02-28T02:36:23;1.92;;;1.10;;
51451;SDS011;37521;52.020;-1.740;2023-02-28T02:38:58;1.85;;;1.58;;
51451;SDS011;37521;52.020;-1.740;2023-02-28T02:41:34;1.30;;;1.20;;
51451;SDS011;37521;52.020;-1.740;2023-02-28T02:44:10;1.52;;;1.38;;
51451;SDS011;37521;52.020;-1.740;2023-02-28T02:46:41;2.00;;;1.38;;
51451;SDS011;37521;52.020;-1.740;2023-02-28T02:49:13;1.95;;;1.80;;
51451;SDS011;37521;52.020;-1.740;2023-02-28T02:51:46;2.97;;;1.83;;
51451;SDS011;37521;52.020;-1.740;2023-02-28T02:54:16;1.50;;;1.40;;
51451;SDS011;37521;52.020;-1.740;2023-02-28T02:56:48;1.55;;;1.45;;
51451;SDS011;37521;52.020;-1.740;2023-02-28T02:59:19;1.58;;;1.48;;
51451;SDS011;37521;52.020;-1.740;2023-02-28T03:01:51;3.20;;;1.88;;
51451;SDS011;37521;52.020;-1.740;2023-02-28T03:04:23;3.25;;;1.92;;
51451;SDS011;37521;52.020;-1.740;2023-02-28T03:06:55;1.85;;;1.60;;
51451;SDS011;37521;52.020;-1.740;2023-02-28T03:09:24;1.92;;;1.17;;
51451;SDS011;37521;52.020;-1.740;2023-02-28T03:11:53;2.25;;;1.75;;
51451;SDS011;37521;52.020;-1.740;2023-02-28T03:14:25;2.65;;;2.03;;
51451;SDS011;37521;52.020;-1.740;2023-02-28T03:17:08;3.00;;;2.28;;
51451;SDS011;37521;52.020;-1.740;2023-02-28T03:19:52;2.70;;;1.63;;
51451;SDS011;37521;52.020;-1.740;2023-02-28T03:22:42;1.63;;;1.52;;
51451;SDS011;37521;52.020;-1.740;2023-02-28T03:25:20;3.65;;;2.65;;
51451;SDS011;37521;52.020;-1.740;2023-02-28T03:27:58;3.60;;;2.80;;
51451;SDS011;37521;52.020;-1.740;2023-02-28T03:30:33;2.95;;;2.40;;
51451;SDS011;37521;52.020;-1.740;2023-02-28T03:33:08;7.13;;;2.88;;
51451;SDS011;37521;52.020;-1.740;2023-02-28T03:35:41;3.58;;;2.13;;
51451;SDS011;37521;52.020;-1.740;2023-02-28T03:38:15;2.33;;;2.13;;
51451;SDS011;37521;52.020;-1.740;2023-02-28T03:40:48;6.07;;;3.08;;
51451;SDS011;37521;52.020;-1.740;2023-02-28T03:43:20;5.18;;;2.22;;
51451;SDS011;37521;52.020;-1.740;2023-02-28T03:45:52;3.80;;;2.58;;
51451;SDS011;37521;52.020;-1.740;2023-02-28T03:48:23;4.03;;;2.47;;
51451;SDS011;37521;52.020;-1.740;2023-02-28T03:50:57;3.22;;;2.78;;
51451;SDS011;37521;52.020;-1.740;2023-02-28T03:53:29;5.00;;;2.85;;
51451;SDS011;37521;52.020;-1.740;2023-02-28T03:56:03;6.97;;;3.75;;
51451;SDS011;37521;52.020;-1.740;2023-02-28T03:58:37;4.68;;;3.63;;
51451;SDS011;37521;52.020;-1.740;2023-02-28T04:01:11;7.47;;;3.60;;
51451;SDS011;37521;52.020;-1.740;2023-02-28T04:03:43;4.65;;;3.10;;
51451;SDS011;37521;52.020;-1.740;2023-02-28T04:06:13;4.93;;;3.20;;
51451;SDS011;37521;52.020;-1.740;2023-02-28T04:08:45;3.42;;;2.75;;
51451;SDS011;37521;52.020;-1.740;2023-02-28T04:11:17;3.60;;;2.53;;
51451;SDS011;37521;52.020;-1.740;2023-02-28T04:13:48;2.53;;;2.22;;
51451;SDS011;37521;52.020;-1.740;2023-02-28T04:16:17;4.63;;;2.80;;
51451;SDS011;37521;52.020;-1.740;2023-02-28T04:18:59;6.60;;;3.15;;
51451;SDS011;37521;52.020;-1.740;2023-02-28T04:21:30;3.95;;;2.92;;
51451;SDS011;37521;52.020;-1.740;2023-02-28T04:24:01;4.03;;;2.40;;
51451;SDS011;37521;52.020;-1.740;2023-02-28T04:26:29;3.90;;;2.88;;
51451;SDS011;37521;52.020;-1.740;2023-02-28T04:28:58;2.15;;;1.98;;
51451;SDS011;37521;52.020;-1.740;2023-02-28T04:31:27;2.53;;;2.17;;
51451;SDS011;37521;52.020;-1.740;2023-02-28T04:33:56;2.53;;;1.85;;
51451;SDS011;37521;52.020;-1.740;2023-02-28T04:36:25;2.25;;;1.77;;
51451;SDS011;37521;52.020;-1.740;2023-02-28T04:38:53;4.10;;;2.17;;
51451;SDS011;37521;52.020;-1.740;2023-02-28T04:41:23;1.60;;;1.27;;
51451;SDS011;37521;52.020;-1.740;2023-02-28T04:43:53;1.70;;;1.38;;
51451;SDS011;37521;52.020;-1.740;2023-02-28T04:46:22;1.55;;;1.20;;
51451;SDS011;37521;52.020;-1.740;2023-02-28T04:48:50;1.10;;;1.00;;
51451;SDS011;37521;52.020;-1.740;2023-02-28T04:51:20;1.35;;;1.23;;
51451;SDS011;37521;52.020;-1.740;2023-02-28T04:53:49;1.15;;;1.05;;
51451;SDS011;37521;52.020;-1.740;2023-02-28T04:56:17;1.48;;;1.00;;
51451;SDS011;37521;52.020;-1.740;2023-02-28T04:58:47;2.17;;;1.23;;
51451;SDS011;37521;52.020;-1.740;2023-02-28T05:01:16;1.52;;;1.02;;
51451;SDS011;37521;52.020;-1.740;2023-02-28T05:03:49;1.67;;;1.30;;
51451;SDS011;37521;52.020;-1.740;2023-02-28T05:06:19;2.05;;;1.20;;
51451;SDS011;37521;52.020;-1.740;2023-02-28T05:08:50;1.00;;;0.90;;
51451;SDS011;37521;52.020;-1.740;2023-02-28T05:11:20;1.73;;;1.50;;
51451;SDS011;37521;52.020;-1.740;2023-02-28T05:13:51;2.25;;;2.10;;
51451;SDS011;37521;52.020;-1.740;2023-02-28T05:16:20;6.03;;;1.90;;
51451;SDS011;37521;52.020;-1.740;2023-02-28T05:18:48;2.47;;;1.70;;
51451;SDS011;37521;52.020;-1.740;2023-02-28T05:21:22;2.85;;;2.00;;
51451;SDS011;37521;52.020;-1.740;2023-02-28T05:23:54;3.22;;;2.38;;
51451;SDS011;37521;52.020;-1.740;2023-02-28T05:26:23;3.35;;;1.88;;
51451;SDS011;37521;52.020;-1.740;2023-02-28T05:28:53;4.45;;;2.75;;
51451;SDS011;37521;52.020;-1.740;2023-02-28T05:31:22;4.20;;;2.85;;
51451;SDS011;37521;52.020;-1.740;2023-02-28T05:33:50;6.22;;;3.15;;
51451;SDS011;37521;52.020;-1.740;2023-02-28T05:36:19;4.57;;;2.63;;
51451;SDS011;37521;52.020;-1.740;2023-02-28T05:38:47;5.00;;;3.40;;
51451;SDS011;37521;52.020;-1.740;2023-02-28T05:41:17;4.88;;;3.30;;
51451;SDS011;37521;52.020;-1.740;2023-02-28T05:43:46;5.00;;;2.88;;
51451;SDS011;37521;52.020;-1.740;2023-02-28T05:46:16;3.75;;;3.03;;
51451;SDS011;37521;52.020;-1.740;2023-02-28T05:48:46;7.50;;;3.90;;
51451;SDS011;37521;52.020;-1.740;2023-02-28T05:51:16;5.93;;;3.00;;
51451;SDS011;37521;52.020;-1.740;2023-02-28T05:53:44;5.70;;;3.13;;
51451;SDS011;37521;52.020;-1.740;2023-02-28T05:56:14;5.45;;;3.05;;
51451;SDS011;37521;52.020;-1.740;2023-02-28T05:58:42;5.63;;;2.78;;
51451;SDS011;37521;52.020;-1.740;2023-02-28T06:04:02;5.13;;;3.28;;
51451;SDS011;37521;52.020;-1.740;2023-02-28T06:06:32;5.13;;;3.35;;
51451;SDS011;37521;52.020;-1.740;2023-02-28T06:09:03;6.38;;;4.07;;
51451;SDS011;37521;52.020;-1.740;2023-02-28T06:11:32;6.75;;;3.83;;
51451;SDS011;37521;52.020;-1.740;2023-02-28T06:14:01;5.32;;;4.20;;
51451;SDS011;37521;52.020;-1.740;2023-02-28T06:16:31;4.85;;;3.88;;
51451;SDS011;37521;52.020;-1.740;2023-02-28T06:19:02;4.97;;;3.28;;
51451;SDS011;37521;52.020;-1.740;2023-02-28T06:21:31;3.88;;;2.90;;
51451;SDS011;37521;52.020;-1.740;2023-02-28T06:23:59;3.20;;;2.30;;
51451;SDS011;37521;52.020;-1.740;2023-02-28T06:26:28;5.90;;;3.17;;
51451;SDS011;37521;52.020;-1.740;2023-02-28T06:28:56;6.45;;;3.22;;
51451;SDS011;37521;52.020;-1.740;2023-02-28T06:31:25;5.75;;;3.38;;
51451;SDS011;37521;52.020;-1.740;2023-02-28T06:33:57;7.60;;;3.65;;
51451;SDS011;37521;52.020;-1.740;2023-02-28T06:36:25;5.57;;;3.83;;
51451;SDS011;37521;52.020;-1.740;2023-02-28T06:38:54;4.50;;;3.63;;
51451;SDS011;37521;52.020;-1.740;2023-02-28T06:41:23;6.78;;;3.25;;
51451;SDS011;37521;52.020;-1.740;2023-02-28T06:43:54;7.38;;;4.07;;
51451;SDS011;37521;52.020;-1.740;2023-02-28T06:46:22;6.13;;;3.25;;
51451;SDS011;37521;52.020;-1.740;2023-02-28T06:48:51;6.60;;;3.92;;
51451;SDS011;37521;52.020;-1.740;2023-02-28T06:51:20;6.50;;;3.85;;
51451;SDS011;37521;52.020;-1.740;2023-02-28T06:53:50;6.13;;;3.88;;
51451;SDS011;37521;52.020;-1.740;2023-02-28T06:56:19;3.35;;;2.47;;
51451;SDS011;37521;52.020;-1.740;2023-02-28T06:58:48;3.00;;;2.00;;
51451;SDS011;37521;52.020;-1.740;2023-02-28T07:01:19;4.72;;;2.47;;
51451;SDS011;37521;52.020;-1.740;2023-02-28T07:03:49;2.35;;;2.03;;
51451;SDS011;37521;52.020;-1.740;2023-02-28T07:06:18;5.90;;;2.40;;
51451;SDS011;37521;52.020;-1.740;2023-02-28T07:08:50;3.50;;;2.05;;
51451;SDS011;37521;52.020;-1.740;2023-02-28T07:11:19;2.63;;;1.50;;
51451;SDS011;37521;52.020;-1.740;2023-02-28T07:13:49;2.55;;;2.13;;
51451;SDS011;37521;52.020;-1.740;2023-02-28T07:16:17;2.33;;;1.75;;
51451;SDS011;37521;52.020;-1.740;2023-02-28T07:18:46;3.22;;;1.65;;
51451;SDS011;37521;52.020;-1.740;2023-02-28T07:21:14;3.65;;;1.90;;
51451;SDS011;37521;52.020;-1.740;2023-02-28T07:23:44;4.72;;;2.83;;
51451;SDS011;37521;52.020;-1.740;2023-02-28T07:26:13;2.88;;;1.95;;
51451;SDS011;37521;52.020;-1.740;2023-02-28T07:28:43;2.17;;;1.77;;
51451;SDS011;37521;52.020;-1.740;2023-02-28T07:31:13;4.88;;;3.08;;
51451;SDS011;37521;52.020;-1.740;2023-02-28T07:33:42;3.95;;;2.67;;
51451;SDS011;37521;52.020;-1.740;2023-02-28T07:36:11;3.22;;;1.92;;
51451;SDS011;37521;52.020;-1.740;2023-02-28T07:38:42;1.98;;;1.77;;
51451;SDS011;37521;52.020;-1.740;2023-02-28T07:41:15;1.65;;;1.40;;
51451;SDS011;37521;52.020;-1.740;2023-02-28T07:43:44;2.53;;;1.98;;
51451;SDS011;37521;52.020;-1.740;2023-02-28T07:46:14;2.15;;;1.88;;
51451;SDS011;37521;52.020;-1.740;2023-02-28T07:48:44;1.98;;;1.50;;
51451;SDS011;37521;52.020;-1.740;2023-02-28T07:51:12;1.83;;;1.48;;
51451;SDS011;37521;52.020;-1.740;2023-02-28T07:53:41;4.45;;;1.95;;
51451;SDS011;37521;52.020;-1.740;2023-02-28T07:56:09;2.70;;;1.90;;
51451;SDS011;37521;52.020;-1.740;2023-02-28T07:58:39;2.70;;;1.60;;
51451;SDS011;37521;52.020;-1.740;2023-02-28T08:01:07;3.70;;;2.10;;
51451;SDS011;37521;52.020;-1.740;2023-02-28T08:03:38;5.78;;;2.33;;
51451;SDS011;37521;52.020;-1.740;2023-02-28T08:06:07;2.67;;;2.15;;
51451;SDS011;37521;52.020;-1.740;2023-02-28T08:08:42;4.13;;;2.17;;
51451;SDS011;37521;52.020;-1.740;2023-02-28T08:11:10;3.58;;;2.10;;
51451;SDS011;37521;52.020;-1.740;2023-02-28T08:13:40;4.43;;;1.88;;
51451;SDS011;37521;52.020;-1.740;2023-02-28T08:16:11;3.20;;;1.65;;
51451;SDS011;37521;52.020;-1.740;2023-02-28T08:18:41;4.53;;;2.50;;
51451;SDS011;37521;52.020;-1.740;2023-02-28T08:21:09;2.50;;;2.00;;
51451;SDS011;37521;52.020;-1.740;2023-02-28T08:23:38;5.18;;;2.22;;
51451;SDS011;37521;52.020;-1.740;2023-02-28T08:26:06;4.05;;;2.22;;
51451;SDS011;37521;52.020;-1.740;2023-02-28T08:28:34;3.13;;;1.98;;
51451;SDS011;37521;52.020;-1.740;2023-02-28T08:31:07;4.55;;;2.63;;
51451;SDS011;37521;52.020;-1.740;2023-02-28T08:33:36;3.85;;;2.25;;
51451;SDS011;37521;52.020;-1.740;2023-02-28T08:36:06;6.45;;;2.95;;
51451;SDS011;37521;52.020;-1.740;2023-02-28T08:38:35;4.53;;;2.80;;
51451;SDS011;37521;52.020;-1.740;2023-02-28T08:41:04;7.57;;;3.88;;
51451;SDS011;37521;52.020;-1.740;2023-02-28T08:43:35;7.30;;;3.28;;
51451;SDS011;37521;52.020;-1.740;2023-02-28T08:46:04;6.30;;;3.40;;
51451;SDS011;37521;52.020;-1.740;2023-02-28T08:48:35;6.10;;;3.58;;
51451;SDS011;37521;52.020;-1.740;2023-02-28T08:51:05;7.47;;;3.40;;
51451;SDS011;37521;52.020;-1.740;2023-02-28T08:53:35;5.55;;;3.00;;
51451;SDS011;37521;52.020;-1.740;2023-02-28T08:56:05;5.75;;;3.10;;
51451;SDS011;37521;52.020;-1.740;2023-02-28T08:58:35;5.20;;;3.70;;
51451;SDS011;37521;52.020;-1.740;2023-02-28T09:01:07;7.63;;;3.67;;
51451;SDS011;37521;52.020;-1.740;2023-02-28T09:03:38;6.75;;;4.05;;
51451;SDS011;37521;52.020;-1.740;2023-02-28T09:06:08;9.95;;;4.07;;
51451;SDS011;37521;52.020;-1.740;2023-02-28T09:08:37;8.80;;;4.30;;
51451;SDS011;37521;52.020;-1.740;2023-02-28T09:11:06;11.05;;;4.40;;
51451;SDS011;37521;52.020;-1.740;2023-02-28T09:13:35;7.80;;;4.28;;
51451;SDS011;37521;52.020;-1.740;2023-02-28T09:16:04;6.90;;;4.07;;
51451;SDS011;37521;52.020;-1.740;2023-02-28T09:18:34;7.28;;;4.22;;
51451;SDS011;37521;52.020;-1.740;2023-02-28T09:21:06;9.32;;;4.68;;
51451;SDS011;37521;52.020;-1.740;2023-02-28T09:23:35;9.95;;;4.72;;
51451;SDS011;37521;52.020;-1.740;2023-02-28T09:26:04;9.70;;;3.55;;
51451;SDS011;37521;52.020;-1.740;2023-02-28T09:28:33;8.13;;;4.35;;
51451;SDS011;37521;52.020;-1.740;2023-02-28T09:31:01;10.10;;;4.20;;
51451;SDS011;37521;52.020;-1.740;2023-02-28T09:33:31;10.00;;;3.92;;
51451;SDS011;37521;52.020;-1.740;2023-02-28T09:36:00;10.23;;;4.65;;
51451;SDS011;37521;52.020;-1.740;2023-02-28T09:38:31;9.85;;;4.75;;
51451;SDS011;37521;52.020;-1.740;2023-02-28T09:41:00;10.98;;;4.40;;
51451;SDS011;37521;52.020;-1.740;2023-02-28T09:43:31;13.48;;;4.82;;
51451;SDS011;37521;52.020;-1.740;2023-02-28T09:46:05;10.80;;;4.53;;
51451;SDS011;37521;52.020;-1.740;2023-02-28T09:48:41;12.07;;;4.68;;
51451;SDS011;37521;52.020;-1.740;2023-02-28T09:51:15;10.73;;;3.88;;
51451;SDS011;37521;52.020;-1.740;2023-02-28T09:53:57;12.45;;;4.32;;
51451;SDS011;37521;52.020;-1.740;2023-02-28T09:56:29;13.02;;;5.32;;
51451;SDS011;37521;52.020;-1.740;2023-02-28T09:59:02;10.77;;;4.95;;
51451;SDS011;37521;52.020;-1.740;2023-02-28T10:01:39;14.48;;;5.00;;
51451;SDS011;37521;52.020;-1.740;2023-02-28T10:04:16;11.98;;;5.53;;
51451;SDS011;37521;52.020;-1.740;2023-02-28T10:07:02;8.30;;;4.13;;
51451;SDS011;37521;52.020;-1.740;2023-02-28T10:09:36;10.95;;;5.40;;
51451;SDS011;37521;52.020;-1.740;2023-02-28T10:12:05;12.40;;;5.22;;
51451;SDS011;37521;52.020;-1.740;2023-02-28T10:14:36;10.13;;;4.20;;
51451;SDS011;37521;52.020;-1.740;2023-02-28T10:17:14;11.70;;;4.68;;
51451;SDS011;37521;52.020;-1.740;2023-02-28T10:19:49;8.88;;;4.80;;
51451;SDS011;37521;52.020;-1.740;2023-02-28T10:22:24;9.13;;;3.90;;
51451;SDS011;37521;52.020;-1.740;2023-02-28T10:24:57;10.55;;;5.25;;
51451;SDS011;37521;52.020;-1.740;2023-02-28T10:27:32;12.65;;;4.65;;
51451;SDS011;37521;52.020;-1.740;2023-02-28T10:30:02;10.88;;;4.88;;
51451;SDS011;37521;52.020;-1.740;2023-02-28T10:32:32;10.57;;;3.95;;
51451;SDS011;37521;52.020;-1.740;2023-02-28T10:35:09;11.55;;;4.63;;
51451;SDS011;37521;52.020;-1.740;2023-02-28T10:37:42;13.02;;;4.28;;
51451;SDS011;37521;52.020;-1.740;2023-02-28T10:40:27;9.10;;;3.50;;
51451;SDS011;37521;52.020;-1.740;2023-02-28T10:42:58;9.57;;;4.78;;
51451;SDS011;37521;52.020;-1.740;2023-02-28T10:45:28;12.07;;;4.68;;
51451;SDS011;37521;52.020;-1.740;2023-02-28T10:47:59;8.85;;;4.07;;
51451;SDS011;37521;52.020;-1.740;2023-02-28T10:50:31;8.35;;;3.67;;
51451;SDS011;37521;52.020;-1.740;2023-02-28T10:55:43;8.65;;;3.75;;
51451;SDS011;37521;52.020;-1.740;2023-02-28T10:58:20;10.70;;;4.35;;
51451;SDS011;37521;52.020;-1.740;2023-02-28T11:00:50;7.40;;;4.05;;
51451;SDS011;37521;52.020;-1.740;2023-02-28T11:03:23;13.18;;;4.90;;
51451;SDS011;37521;52.020;-1.740;2023-02-28T11:05:56;6.70;;;2.90;;
51451;SDS011;37521;52.020;-1.740;2023-02-28T11:08:25;9.02;;;4.72;;
51451;SDS011;37521;52.020;-1.740;2023-02-28T11:10:55;6.00;;;3.30;;
51451;SDS011;37521;52.020;-1.740;2023-02-28T11:13:26;8.43;;;4.03;;
51451;SDS011;37521;52.020;-1.740;2023-02-28T11:15:58;11.63;;;3.83;;
51451;SDS011;37521;52.020;-1.740;2023-02-28T11:18:29;9.18;;;4.07;;
51451;SDS011;37521;52.020;-1.740;2023-02-28T11:21:01;8.95;;;3.47;;
51451;SDS011;37521;52.020;-1.740;2023-02-28T11:23:30;4.65;;;2.38;;
51451;SDS011;37521;52.020;-1.740;2023-02-28T11:26:04;4.72;;;3.03;;
51451;SDS011;37521;52.020;-1.740;2023-02-28T11:28:37;6.60;;;3.40;;
51451;SDS011;37521;52.020;-1.740;2023-02-28T11:31:15;2.75;;;1.88;;
51451;SDS011;37521;52.020;-1.740;2023-02-28T11:33:46;7.75;;;2.42;;
51451;SDS011;37521;52.020;-1.740;2023-02-28T11:36:18;10.20;;;4.10;;
51451;SDS011;37521;52.020;-1.740;2023-02-28T11:38:51;6.55;;;3.15;;
51451;SDS011;37521;52.020;-1.740;2023-02-28T11:41:25;7.38;;;3.55;;
51451;SDS011;37521;52.020;-1.740;2023-02-28T11:44:13;7.07;;;3.13;;
51451;SDS011;37521;52.020;-1.740;2023-02-28T11:46:57;3.85;;;2.03;;
51451;SDS011;37521;52.020;-1.740;2023-02-28T11:49:32;9.43;;;4.28;;
51451;SDS011;37521;52.020;-1.740;2023-02-28T11:52:06;5.13;;;2.65;;
51451;SDS011;37521;52.020;-1.740;2023-02-28T11:54:51;6.28;;;2.45;;
51451;SDS011;37521;52.020;-1.740;2023-02-28T11:57:43;3.92;;;2.78;;
51451;SDS011;37521;52.020;-1.740;2023-02-28T12:00:30;6.22;;;2.55;;
51451;SDS011;37521;52.020;-1.740;2023-02-28T12:03:11;3.83;;;2.05;;
51451;SDS011;37521;52.020;-1.740;2023-02-28T12:05:49;4.90;;;2.55;;
51451;SDS011;37521;52.020;-1.740;2023-02-28T12:08:28;2.83;;;1.20;;
51451;SDS011;37521;52.020;-1.740;2023-02-28T12:11:11;3.03;;;1.92;;
51451;SDS011;37521;52.020;-1.740;2023-02-28T12:13:52;6.07;;;2.70;;
51451;SDS011;37521;52.020;-1.740;2023-02-28T12:16:34;6.50;;;3.38;;
51451;SDS011;37521;52.020;-1.740;2023-02-28T12:19:16;6.30;;;2.55;;
51451;SDS011;37521;52.020;-1.740;2023-02-28T12:21:53;9.13;;;2.58;;
51451;SDS011;37521;52.020;-1.740;2023-02-28T12:24:38;6.63;;;3.15;;
51451;SDS011;37521;52.020;-1.740;2023-02-28T12:27:13;6.40;;;3.08;;
51451;SDS011;37521;52.020;-1.740;2023-02-28T12:29:47;5.55;;;3.15;;
51451;SDS011;37521;52.020;-1.740;2023-02-28T12:32:23;6.93;;;2.40;;
51451;SDS011;37521;52.020;-1.740;2023-02-28T12:34:56;6.07;;;2.97;;
51451;SDS011;37521;52.020;-1.740;2023-02-28T12:40:00;4.63;;;2.05;;
51451;SDS011;37521;52.020;-1.740;2023-02-28T12:42:35;6.78;;;3.67;;
51451;SDS011;37521;52.020;-1.740;2023-02-28T12:45:10;6.35;;;3.05;;
51451;SDS011;37521;52.020;-1.740;2023-02-28T12:47:43;5.05;;;2.47;;
51451;SDS011;37521;52.020;-1.740;2023-02-28T12:50:14;5.78;;;2.75;;
51451;SDS011;37521;52.020;-1.740;2023-02-28T12:52:46;6.53;;;3.38;;
51451;SDS011;37521;52.020;-1.740;2023-02-28T12:55:21;8.18;;;3.70;;
51451;SDS011;37521;52.020;-1.740;2023-02-28T12:57:57;5.35;;;2.70;;
51451;SDS011;37521;52.020;-1.740;2023-02-28T13:00:34;8.13;;;3.22;;
51451;SDS011;37521;52.020;-1.740;2023-02-28T13:03:12;6.07;;;2.47;;
51451;SDS011;37521;52.020;-1.740;2023-02-28T13:06:05;4.28;;;2.03;;
51451;SDS011;37521;52.020;-1.740;2023-02-28T13:11:33;2.47;;;2.20;;
51451;SDS011;37521;52.020;-1.740;2023-02-28T13:14:15;3.50;;;2.00;;
51451;SDS011;37521;52.020;-1.740;2023-02-28T13:16:52;4.90;;;2.08;;
51451;SDS011;37521;52.020;-1.740;2023-02-28T13:19:25;2.00;;;1.52;;
51451;SDS011;37521;52.020;-1.740;2023-02-28T13:21:55;2.00;;;1.13;;
51451;SDS011;37521;52.020;-1.740;2023-02-28T13:27:22;1.88;;;1.02;;
51451;SDS011;37521;52.020;-1.740;2023-02-28T13:29:59;1.75;;;1.58;;
51451;SDS011;37521;52.020;-1.740;2023-02-28T13:32:34;1.60;;;1.00;;
51451;SDS011;37521;52.020;-1.740;2023-02-28T13:44:07;2.15;;;1.67;;
51451;SDS011;37521;52.020;-1.740;2023-02-28T13:46:38;1.77;;;1.25;;
51451;SDS011;37521;52.020;-1.740;2023-02-28T13:49:44;1.25;;;0.98;;
51451;SDS011;37521;52.020;-1.740;2023-02-28T13:52:15;2.55;;;1.13;;
51451;SDS011;37521;52.020;-1.740;2023-02-28T13:54:54;4.43;;;2.38;;
51451;SDS011;37521;52.020;-1.740;2023-02-28T13:57:40;1.98;;;1.65;;
51451;SDS011;37521;52.020;-1.740;2023-02-28T14:00:20;3.10;;;2.22;;
51451;SDS011;37521;52.020;-1.740;2023-02-28T14:03:03;1.52;;;1.20;;
51451;SDS011;37521;52.020;-1.740;2023-02-28T14:05:39;2.90;;;1.55;;
51451;SDS011;37521;52.020;-1.740;2023-02-28T14:08:11;2.63;;;1.88;;
51451;SDS011;37521;52.020;-1.740;2023-02-28T14:10:44;3.22;;;1.65;;
51451;SDS011;37521;52.020;-1.740;2023-02-28T14:16:12;2.40;;;1.23;;
51451;SDS011;37521;52.020;-1.740;2023-02-28T14:18:42;3.15;;;2.50;;
51451;SDS011;37521;52.020;-1.740;2023-02-28T14:21:22;3.97;;;1.88;;
51451;SDS011;37521;52.020;-1.740;2023-02-28T14:27:06;2.70;;;1.13;;
51451;SDS011;37521;52.020;-1.740;2023-02-28T14:29:55;5.15;;;2.22;;
51451;SDS011;37521;52.020;-1.740;2023-02-28T14:32:34;2.95;;;2.30;;
51451;SDS011;37521;52.020;-1.740;2023-02-28T14:35:13;1.20;;;1.05;;
51451;SDS011;37521;52.020;-1.740;2023-02-28T14:37:55;1.83;;;1.30;;
51451;SDS011;37521;52.020;-1.740;2023-02-28T14:40:26;2.20;;;2.00;;
51451;SDS011;37521;52.020;-1.740;2023-02-28T14:42:57;1.87;;;1.63;;
51451;SDS011;37521;52.020;-1.740;2023-02-28T14:45:28;5.55;;;2.78;;
51451;SDS011;37521;52.020;-1.740;2023-02-28T14:47:58;4.80;;;2.65;;
51451;SDS011;37521;52.020;-1.740;2023-02-28T14:50:29;2.45;;;1.83;;
51451;SDS011;37521;52.020;-1.740;2023-02-28T14:53:00;3.33;;;2.63;;
51451;SDS011;37521;52.020;-1.740;2023-02-28T14:55:30;5.03;;;3.00;;
51451;SDS011;37521;52.020;-1.740;2023-02-28T14:58:02;3.00;;;2.15;;
51451;SDS011;37521;52.020;-1.740;2023-02-28T15:00:33;3.15;;;2.03;;
51451;SDS011;37521;52.020;-1.740;2023-02-28T15:03:13;3.95;;;2.22;;
51451;SDS011;37521;52.020;-1.740;2023-02-28T15:05:51;4.00;;;2.05;;
51451;SDS011;37521;52.020;-1.740;2023-02-28T15:08:21;2.03;;;1.80;;
51451;SDS011;37521;52.020;-1.740;2023-02-28T15:10:51;3.25;;;2.08;;
51451;SDS011;37521;52.020;-1.740;2023-02-28T15:13:22;4.05;;;2.25;;
51451;SDS011;37521;52.020;-1.740;2023-02-28T15:15:54;3.35;;;2.40;;
51451;SDS011;37521;52.020;-1.740;2023-02-28T15:18:31;6.13;;;3.60;;
51451;SDS011;37521;52.020;-1.740;2023-02-28T15:21:06;3.25;;;1.83;;
51451;SDS011;37521;52.020;-1.740;2023-02-28T15:23:40;2.03;;;1.58;;
51451;SDS011;37521;52.020;-1.740;2023-02-28T15:26:12;1.90;;;1.55;;
51451;SDS011;37521;52.020;-1.740;2023-02-28T15:28:43;1.08;;;0.85;;
51451;SDS011;37521;52.020;-1.740;2023-02-28T15:31:19;2.95;;;1.58;;
51451;SDS011;37521;52.020;-1.740;2023-02-28T15:33:52;1.92;;;1.40;;
51451;SDS011;37521;52.020;-1.740;2023-02-28T15:36:24;2.53;;;2.08;;